This is the latest recevied weather packets stored in our database for station/object KE0PRS. If no packets are shown the sender has not sent any weather packets the latest 10 day(s).
| Time | Temp. | Humidity | Pressure | Rain* | Wind** | Luminosity | Snow |
|---|---|---|---|---|---|---|---|
| 1787581348 | 26.11° C | 54% | 1015.5 hPa | 0 mm | - | 119 W/m² | - |
| 1787581048 | 25.56° C | 55% | 1015.6 hPa | 0 mm | - | 146 W/m² | - |
| 1787580744 | 25° C | 57% | 1015.3 hPa | 0 mm | - | 246 W/m² | - |
| 1787580439 | 24.44° C | 58% | 1015.3 hPa | 0 mm | - | 106 W/m² | - |
| 1787580134 | 24.44° C | 57% | 1015.3 hPa | 0 mm | - | 161 W/m² | - |
| 1787579835 | 24.44° C | 58% | 1015.3 hPa | 0 mm | - | 217 W/m² | - |
| 1787579535 | 23.33° C | 60% | 1015.2 hPa | 0 mm | - | 212 W/m² | - |
| 1787579230 | 22.78° C | 61% | 1015.2 hPa | 0 mm | - | 199 W/m² | - |
| 1787578925 | 23.33° C | 62% | 1015 hPa | 0 mm | - | 89 W/m² | - |
| 1787578621 | 23.33° C | 60% | 1014.9 hPa | 0 mm | - | 103 W/m² | - |
| 1787578320 | 22.22° C | 63% | 1014.8 hPa | 0 mm | - | 151 W/m² | - |
| 1787578015 | 22.22° C | 64% | 1014.9 hPa | 0 mm | - | 79 W/m² | - |
| 1787577711 | 21.67° C | 65% | 1015 hPa | 0 mm | - | 57 W/m² | - |
| 1787577407 | 21.67° C | 65% | 1014.9 hPa | 0 mm | - | 70 W/m² | - |
| 1787577102 | 21.67° C | 65% | 1014.9 hPa | 0 mm | - | 56 W/m² | - |
| 1787576799 | 21.67° C | 65% | 1015 hPa | 0 mm | - | 58 W/m² | - |
| 1787576494 | 21.11° C | 67% | 1015.2 hPa | 0 mm | - | 62 W/m² | - |
| 1787576190 | 21.11° C | 68% | 1015 hPa | 0 mm | - | 74 W/m² | - |
| 1787575885 | 20.56° C | 70% | 1014.9 hPa | 0 mm | - | 68 W/m² | - |
| 1787575581 | 20.56° C | 71% | 1015 hPa | 0 mm | - | 63 W/m² | - |
| 1787575275 | 20° C | 71% | 1014.9 hPa | 0 mm | - | 54 W/m² | - |
| 1787574970 | 20° C | 72% | 1014.9 hPa | 0 mm | - | 45 W/m² | - |
| 1787574666 | 20° C | 72% | 1014.9 hPa | 0 mm | - | 34 W/m² | - |
| 1787574361 | 20° C | 72% | 1014.8 hPa | 0 mm | - | 26 W/m² | - |
| 1787574059 | 20° C | 73% | 1014.7 hPa | 0 mm | - | 12 W/m² | - |
* Rain latest hour (hover to see other rain measurements)
** Current wind speed in m/s (hover to see current wind gust speed)